createdAt,value
2019-05-14T00:01:03.136Z,20.28
2019-05-14T00:02:04.859Z,20.27
2019-05-14T00:03:06.270Z,20.27
2019-05-14T00:04:08.829Z,20.26
2019-05-14T00:05:12.175Z,20.27
2019-05-14T00:06:13.553Z,20.25
2019-05-14T00:07:15.075Z,20.25
2019-05-14T00:08:17.626Z,20.24
2019-05-14T00:09:21.378Z,20.23
2019-05-14T00:10:22.446Z,20.23
2019-05-14T00:11:23.946Z,20.22
2019-05-14T00:12:25.328Z,20.23
2019-05-14T00:13:26.748Z,20.23
2019-05-14T00:14:38.724Z,20.22
2019-05-14T00:15:32.185Z,20.22
2019-05-14T00:16:33.779Z,20.24
2019-05-14T00:17:35.191Z,20.24
2019-05-14T00:18:36.569Z,20.23
2019-05-14T00:19:38.125Z,20.23
2019-05-14T00:20:41.796Z,20.24
2019-05-14T00:21:42.964Z,20.23
2019-05-14T00:22:44.500Z,20.24
2019-05-14T00:23:46.020Z,20.24
2019-05-14T00:24:47.429Z,20.26
2019-05-14T00:25:48.946Z,20.26
2019-05-14T00:26:51.716Z,20.27
2019-05-14T00:27:53.375Z,20.27
2019-05-14T00:28:54.844Z,20.27
2019-05-14T00:29:56.251Z,20.27
2019-05-14T00:30:57.620Z,20.27
2019-05-14T00:31:59.027Z,20.27
2019-05-14T00:33:01.245Z,20.27
2019-05-14T00:34:03.036Z,20.27
2019-05-14T00:35:05.698Z,20.26
2019-05-14T00:36:07.221Z,20.26
2019-05-14T00:37:08.616Z,20.26
2019-05-14T00:38:11.943Z,20.26
2019-05-14T00:39:13.323Z,20.27
2019-05-14T00:40:14.713Z,20.27
2019-05-14T00:41:16.100Z,20.28
2019-05-14T00:42:17.496Z,20.28
2019-05-14T00:43:18.891Z,20.29
2019-05-14T00:44:21.509Z,20.29
2019-05-14T00:45:23.083Z,20.29
2019-05-14T00:46:24.465Z,20.28
2019-05-14T00:47:25.864Z,20.29
2019-05-14T00:48:27.284Z,20.29
2019-05-14T00:49:28.672Z,20.28
2019-05-14T00:50:31.709Z,20.27
2019-05-14T00:51:33.264Z,20.27
2019-05-14T00:52:34.668Z,20.26
2019-05-14T00:53:36.112Z,20.24
2019-05-14T00:54:37.472Z,20.23
2019-05-14T00:55:41.947Z,20.22
2019-05-14T00:56:43.249Z,20.20
2019-05-14T00:57:44.654Z,20.20
2019-05-14T00:58:46.039Z,20.19
2019-05-14T00:59:47.424Z,20.17
2019-05-14T01:00:48.824Z,20.16
2019-05-14T01:01:51.661Z,20.14
2019-05-14T01:02:53.224Z,20.13
2019-05-14T01:03:55.658Z,20.13
2019-05-14T01:04:57.052Z,20.14
2019-05-14T01:05:58.680Z,20.13
2019-05-14T01:07:01.578Z,20.13
2019-05-14T01:08:04.204Z,20.12
2019-05-14T01:09:05.706Z,20.14
2019-05-14T01:10:07.982Z,20.13
2019-05-14T01:11:11.858Z,20.13
2019-05-14T01:12:13.360Z,20.14
2019-05-14T01:13:14.759Z,20.14
2019-05-14T01:14:16.309Z,20.12
2019-05-14T01:15:17.730Z,20.12
2019-05-14T01:16:19.137Z,20.12
2019-05-14T01:17:22.500Z,20.14
2019-05-14T01:18:23.876Z,20.13
2019-05-14T01:19:25.306Z,20.13
2019-05-14T01:20:26.681Z,20.15
2019-05-14T01:21:28.084Z,20.15
2019-05-14T01:22:31.603Z,20.16
2019-05-14T01:23:32.764Z,20.15
2019-05-14T01:24:34.152Z,20.16
2019-05-14T01:25:35.569Z,20.15
2019-05-14T01:26:37.080Z,20.15
2019-05-14T01:27:38.489Z,20.14
2019-05-14T01:28:41.495Z,20.13
2019-05-14T01:29:43.144Z,20.13
2019-05-14T01:30:44.514Z,20.12
2019-05-14T01:31:45.924Z,20.12
2019-05-14T01:32:47.300Z,20.11
2019-05-14T01:33:48.699Z,20.09
2019-05-14T01:34:52.207Z,20.08
2019-05-14T01:35:53.409Z,20.07
2019-05-14T01:36:54.864Z,20.06
2019-05-14T01:37:56.344Z,20.05
2019-05-14T01:38:57.745Z,20.06
2019-05-14T01:40:01.130Z,20.05
2019-05-14T01:41:02.455Z,20.05
2019-05-14T01:42:03.944Z,20.06
2019-05-14T01:43:05.343Z,20.05
2019-05-14T01:44:06.732Z,20.07
2019-05-14T01:45:21.944Z,20.07
2019-05-14T01:46:12.252Z,20.07
2019-05-14T01:47:13.732Z,20.09
2019-05-14T01:48:15.109Z,20.09
2019-05-14T01:49:16.513Z,20.08
2019-05-14T01:50:17.903Z,20.08
2019-05-14T01:51:19.394Z,20.09
2019-05-14T01:52:21.836Z,20.08
2019-05-14T01:53:23.602Z,20.08
2019-05-14T01:54:25.996Z,20.09
2019-05-14T01:55:27.395Z,20.10
2019-05-14T01:56:28.773Z,20.10
2019-05-14T01:57:31.171Z,20.11
2019-05-14T01:58:32.653Z,20.11
2019-05-14T01:59:34.052Z,20.12
2019-05-14T02:00:35.580Z,20.12
2019-05-14T02:01:36.988Z,20.13
2019-05-14T02:02:38.376Z,20.14
2019-05-14T02:03:41.097Z,20.13
2019-05-14T02:04:43.045Z,20.14
2019-05-14T02:05:45.552Z,20.15
2019-05-14T02:06:46.956Z,20.14
2019-05-14T02:07:48.600Z,20.14
2019-05-14T02:08:51.512Z,20.14
2019-05-14T02:09:53.199Z,20.14
2019-05-14T02:10:54.690Z,20.14
2019-05-14T02:11:56.081Z,20.13
2019-05-14T02:12:57.473Z,20.14
2019-05-14T02:13:58.861Z,20.13
2019-05-14T02:15:01.894Z,20.14
2019-05-14T02:16:04.676Z,20.13
2019-05-14T02:17:06.051Z,20.14
2019-05-14T02:18:07.448Z,20.13
2019-05-14T02:19:08.831Z,20.13
2019-05-14T02:20:12.567Z,20.13
2019-05-14T02:21:13.816Z,20.13
2019-05-14T02:22:15.205Z,20.13
2019-05-14T02:23:16.597Z,20.12
2019-05-14T02:24:17.986Z,20.12
2019-05-14T02:25:21.607Z,20.11
2019-05-14T02:26:23.080Z,20.11
2019-05-14T02:27:25.475Z,20.12
2019-05-14T02:28:26.865Z,20.11
2019-05-14T02:29:28.360Z,20.11
2019-05-14T02:30:45.647Z,20.12
2019-05-14T02:31:33.193Z,20.12
2019-05-14T02:32:34.584Z,20.11
2019-05-14T02:33:39.448Z,20.12
2019-05-14T02:34:40.282Z,20.12
2019-05-14T02:35:41.951Z,20.12
2019-05-14T02:36:43.377Z,20.13
2019-05-14T02:37:44.758Z,20.12
2019-05-14T02:38:49.093Z,20.14
2019-05-14T02:39:50.297Z,20.14
2019-05-14T02:40:51.998Z,20.14
2019-05-14T02:41:53.391Z,20.15
2019-05-14T02:42:54.767Z,20.15
2019-05-14T02:43:59.178Z,20.15
2019-05-14T02:44:59.565Z,20.15
2019-05-14T02:46:11.232Z,20.15
2019-05-14T02:47:04.457Z,20.15
2019-05-14T02:48:05.837Z,20.15
2019-05-14T02:49:10.468Z,20.16
2019-05-14T02:50:11.752Z,20.17
2019-05-14T02:51:13.149Z,20.18
2019-05-14T02:52:15.577Z,20.17
2019-05-14T02:53:19.903Z,20.18
2019-05-14T02:54:22.160Z,20.18
2019-05-14T02:55:23.546Z,20.19
2019-05-14T02:56:24.938Z,20.19
2019-05-14T02:57:26.373Z,20.19
2019-05-14T02:58:29.876Z,20.20
2019-05-14T02:59:31.052Z,20.20
2019-05-14T03:00:33.651Z,20.22
2019-05-14T03:01:35.152Z,20.23
2019-05-14T03:02:40.039Z,20.23
2019-05-14T03:03:40.477Z,20.23
2019-05-14T03:04:43.130Z,20.25
2019-05-14T03:05:44.635Z,20.24
2019-05-14T03:06:46.042Z,20.25
2019-05-14T03:07:49.943Z,20.26
2019-05-14T03:08:51.128Z,20.25
2019-05-14T03:09:52.624Z,20.25
2019-05-14T03:10:54.009Z,20.24
2019-05-14T03:11:55.397Z,20.25
2019-05-14T03:12:59.032Z,20.25
2019-05-14T03:14:00.223Z,20.25
2019-05-14T03:15:02.206Z,20.25
2019-05-14T03:16:20.872Z,20.25
2019-05-14T03:17:10.387Z,20.25
2019-05-14T03:18:10.519Z,20.25
2019-05-14T03:19:11.900Z,20.26
2019-05-14T03:20:13.395Z,20.26
2019-05-14T03:21:14.780Z,20.25
2019-05-14T03:22:16.188Z,20.25
2019-05-14T03:23:22.411Z,20.26
2019-05-14T03:24:21.063Z,20.25
2019-05-14T03:25:22.453Z,20.24
2019-05-14T03:26:23.831Z,20.25
2019-05-14T03:27:25.324Z,20.24
2019-05-14T03:28:30.091Z,20.23
2019-05-14T03:29:30.996Z,20.24
2019-05-14T03:30:33.162Z,20.23
2019-05-14T03:31:34.800Z,20.23
2019-05-14T03:32:41.766Z,20.23
2019-05-14T03:33:44.079Z,20.22
2019-05-14T03:34:44.084Z,20.23
2019-05-14T03:35:56.314Z,20.21
2019-05-14T03:36:52.742Z,20.19
2019-05-14T03:37:52.310Z,20.20
2019-05-14T03:38:53.844Z,20.19
2019-05-14T03:39:55.323Z,20.17
2019-05-14T03:41:00.001Z,20.17
2019-05-14T03:42:00.719Z,20.17
2019-05-14T03:43:02.120Z,20.16
2019-05-14T03:44:03.534Z,20.16
2019-05-14T03:45:05.219Z,20.16
2019-05-14T03:46:09.480Z,20.16
2019-05-14T03:47:10.683Z,20.14
2019-05-14T03:48:12.398Z,20.16
2019-05-14T03:49:13.797Z,20.16
2019-05-14T03:50:15.277Z,20.17
2019-05-14T03:51:16.688Z,20.18
2019-05-14T03:52:19.933Z,20.17
2019-05-14T03:53:21.385Z,20.20
2019-05-14T03:54:22.874Z,20.20
2019-05-14T03:55:24.261Z,20.21
2019-05-14T03:56:25.650Z,20.21
2019-05-14T03:57:29.204Z,20.23
2019-05-14T03:58:30.666Z,20.23
2019-05-14T03:59:32.672Z,20.24
2019-05-14T04:00:39.000Z,20.25
2019-05-14T04:01:40.715Z,20.26
2019-05-14T04:02:42.193Z,20.27
2019-05-14T04:03:43.789Z,20.28
2019-05-14T04:04:45.185Z,20.28
2019-05-14T04:05:49.436Z,20.27
2019-05-14T04:06:53.013Z,20.27
2019-05-14T04:07:54.898Z,20.29
2019-05-14T04:09:00.565Z,20.29
2019-05-14T04:10:04.270Z,20.29
2019-05-14T04:11:09.535Z,20.29
2019-05-14T04:12:11.885Z,20.30
2019-05-14T04:13:14.581Z,20.30
2019-05-14T04:14:19.871Z,20.29
2019-05-14T04:15:23.874Z,20.28
2019-05-14T04:16:29.220Z,20.30
2019-05-14T04:17:37.683Z,20.30
2019-05-14T04:18:40.205Z,20.30
2019-05-14T04:19:42.457Z,20.29
2019-05-14T04:20:49.746Z,20.30
2019-05-14T04:21:50.247Z,20.31
2019-05-14T04:22:53.027Z,20.31
2019-05-14T04:23:59.176Z,20.30
2019-05-14T04:25:01.331Z,20.29
2019-05-14T04:26:03.458Z,20.29
2019-05-14T04:27:09.274Z,20.29
2019-05-14T04:28:19.145Z,20.28
2019-05-14T04:29:22.900Z,20.28
2019-05-14T04:30:24.694Z,20.28
2019-05-14T04:31:29.857Z,20.27
2019-05-14T04:32:31.762Z,20.26
2019-05-14T04:33:33.869Z,20.26
2019-05-14T04:34:35.286Z,20.25
2019-05-14T04:35:40.095Z,20.25
2019-05-14T04:36:41.151Z,20.24
2019-05-14T04:37:42.532Z,20.25
2019-05-14T04:38:43.907Z,20.25
2019-05-14T04:39:45.365Z,20.25
2019-05-14T04:40:49.414Z,20.24
2019-05-14T04:41:50.170Z,20.25
2019-05-14T04:42:51.551Z,20.26
2019-05-14T04:43:52.941Z,20.24
2019-05-14T04:44:54.360Z,20.24
2019-05-14T04:45:58.877Z,20.24
2019-05-14T04:47:00.125Z,20.24
2019-05-14T04:48:21.428Z,20.24
2019-05-14T04:49:05.804Z,20.25
2019-05-14T04:50:10.589Z,20.23
2019-05-14T04:51:10.601Z,20.22
2019-05-14T04:52:12.015Z,20.22
2019-05-14T04:53:13.631Z,20.21
2019-05-14T04:54:15.042Z,20.22
2019-05-14T04:55:16.478Z,20.21
2019-05-14T04:56:19.609Z,20.21
2019-05-14T04:57:25.383Z,20.21
2019-05-14T04:58:24.465Z,20.21
2019-05-14T04:59:25.963Z,20.21
2019-05-14T05:00:30.543Z,20.21
2019-05-14T05:01:30.659Z,20.19
2019-05-14T05:02:32.069Z,20.19
2019-05-14T05:03:33.618Z,20.18
2019-05-14T05:04:35.031Z,20.16
2019-05-14T05:05:39.275Z,20.15
2019-05-14T05:06:39.939Z,20.13
2019-05-14T05:07:41.549Z,20.14
2019-05-14T05:08:43.033Z,20.14
2019-05-14T05:09:44.423Z,20.13
2019-05-14T05:10:49.191Z,20.14
2019-05-14T05:11:49.948Z,20.15
2019-05-14T05:12:51.729Z,20.16
2019-05-14T05:13:53.224Z,20.19
2019-05-14T05:14:55.027Z,20.21
2019-05-14T05:15:59.122Z,20.22
2019-05-14T05:16:59.993Z,20.26
2019-05-14T05:18:01.535Z,20.29
2019-05-14T05:19:02.968Z,20.31
2019-05-14T05:20:05.269Z,20.33
2019-05-14T05:21:08.236Z,20.39
2019-05-14T05:22:09.967Z,20.43
2019-05-14T05:23:11.569Z,20.46
2019-05-14T05:24:13.059Z,20.48
2019-05-14T05:25:14.439Z,20.53
2019-05-14T05:26:18.279Z,20.57
2019-05-14T05:27:19.120Z,20.59
2019-05-14T05:28:20.530Z,20.62
2019-05-14T05:29:21.905Z,20.67
2019-05-14T05:30:23.306Z,20.70
2019-05-14T05:31:24.681Z,20.73
2019-05-14T05:32:28.379Z,20.77
2019-05-14T05:33:29.596Z,20.79
2019-05-14T05:34:32.081Z,20.83
2019-05-14T05:35:33.462Z,20.86
2019-05-14T05:36:34.848Z,20.89
2019-05-14T05:37:38.396Z,20.91
2019-05-14T05:38:39.797Z,20.93
2019-05-14T05:39:41.348Z,20.97
2019-05-14T05:40:42.739Z,21.01
2019-05-14T05:41:44.946Z,21.02
2019-05-14T05:42:48.818Z,21.04
2019-05-14T05:43:49.753Z,21.08
2019-05-14T05:44:51.137Z,21.10
2019-05-14T05:45:52.526Z,21.12
2019-05-14T05:46:53.913Z,21.15
2019-05-14T05:48:01.009Z,21.17
2019-05-14T05:48:58.921Z,21.18
2019-05-14T05:50:00.472Z,21.22
2019-05-14T05:51:01.877Z,21.23
2019-05-14T05:52:03.247Z,21.25
2019-05-14T05:53:04.660Z,21.25
2019-05-14T05:54:06.040Z,21.27
2019-05-14T05:55:08.895Z,21.30
2019-05-14T05:56:10.568Z,21.30
2019-05-14T05:57:12.076Z,21.33
2019-05-14T05:58:13.489Z,21.34
2019-05-14T05:59:14.893Z,21.37
2019-05-14T06:00:32.071Z,21.38
2019-05-14T06:01:42.938Z,21.39
2019-05-14T06:02:39.603Z,21.43
2019-05-14T06:03:40.367Z,21.44
2019-05-14T06:04:41.748Z,21.44
2019-05-14T06:05:43.157Z,21.45
2019-05-14T06:06:44.571Z,21.45
2019-05-14T06:07:48.137Z,21.46
2019-05-14T06:08:49.573Z,21.48
2019-05-14T06:09:51.106Z,21.49
2019-05-14T06:10:52.592Z,21.49
2019-05-14T06:11:54.061Z,21.51
2019-05-14T06:12:55.441Z,21.52
2019-05-14T06:13:58.924Z,21.54
2019-05-14T06:15:00.256Z,21.55
2019-05-14T06:16:01.671Z,21.57
2019-05-14T06:17:03.080Z,21.59
2019-05-14T06:18:15.198Z,21.60
2019-05-14T06:19:08.367Z,21.61
2019-05-14T06:20:10.943Z,21.63
2019-05-14T06:21:12.314Z,21.65
2019-05-14T06:22:13.717Z,21.66
2019-05-14T06:23:15.095Z,21.68
2019-05-14T06:24:19.149Z,21.69
2019-05-14T06:25:21.165Z,21.70
2019-05-14T06:26:22.764Z,21.71
2019-05-14T06:27:24.161Z,21.72
2019-05-14T06:28:30.118Z,21.72
2019-05-14T06:29:29.165Z,21.72
2019-05-14T06:30:36.057Z,21.73
2019-05-14T06:31:38.624Z,21.73
2019-05-14T06:32:40.556Z,21.75
2019-05-14T06:33:41.949Z,21.76
2019-05-14T06:34:43.335Z,21.75
2019-05-14T06:35:44.726Z,21.74
2019-05-14T06:36:48.576Z,21.74
2019-05-14T06:37:51.313Z,21.74
2019-05-14T06:38:52.702Z,21.75
2019-05-14T06:39:54.096Z,21.74
2019-05-14T06:40:55.493Z,21.75
2019-05-14T06:41:58.545Z,21.75
2019-05-14T06:43:00.271Z,21.74
2019-05-14T06:44:01.679Z,21.75
2019-05-14T06:45:04.993Z,21.76
2019-05-14T06:46:08.963Z,21.76
2019-05-14T06:47:09.829Z,21.78
2019-05-14T06:48:26.413Z,21.77
2019-05-14T06:49:14.520Z,21.78
2019-05-14T06:50:15.922Z,21.77
2019-05-14T06:51:19.891Z,21.77
2019-05-14T06:52:20.759Z,21.78
2019-05-14T06:53:22.172Z,21.77
2019-05-14T06:54:23.585Z,21.77
2019-05-14T06:55:24.996Z,21.76
2019-05-14T06:56:28.198Z,21.78
2019-05-14T06:57:29.921Z,21.77
2019-05-14T06:58:31.322Z,21.77
2019-05-14T06:59:32.703Z,21.77
2019-05-14T07:00:34.106Z,21.77
2019-05-14T07:01:35.496Z,21.76
2019-05-14T07:02:43.314Z,21.76
2019-05-14T07:03:40.318Z,21.76
2019-05-14T07:04:41.727Z,21.75
2019-05-14T07:05:43.140Z,21.75
2019-05-14T07:06:44.559Z,21.75
2019-05-14T07:07:49.092Z,21.75
2019-05-14T07:08:52.542Z,21.72
2019-05-14T07:09:52.601Z,21.73
2019-05-14T07:10:54.017Z,21.73
2019-05-14T07:11:55.560Z,21.72
2019-05-14T07:12:59.240Z,21.72
2019-05-14T07:14:00.572Z,21.71
2019-05-14T07:15:02.487Z,21.73
2019-05-14T07:16:03.890Z,21.71
2019-05-14T07:17:05.290Z,21.71
2019-05-14T07:18:08.671Z,21.71
2019-05-14T07:19:10.376Z,21.72
2019-05-14T07:20:12.356Z,21.71
2019-05-14T07:21:13.753Z,21.70
2019-05-14T07:22:15.169Z,21.69
2019-05-14T07:23:19.190Z,21.68
2019-05-14T07:24:20.108Z,21.69
2019-05-14T07:25:21.525Z,21.69
2019-05-14T07:26:22.941Z,21.70
2019-05-14T07:27:24.335Z,21.68
2019-05-14T07:28:28.597Z,21.70
2019-05-14T07:29:29.478Z,21.69
2019-05-14T07:30:30.902Z,21.69
2019-05-14T07:31:32.404Z,21.69
2019-05-14T07:32:33.902Z,21.69
2019-05-14T07:33:35.312Z,21.70
2019-05-14T07:34:38.833Z,21.70
2019-05-14T07:35:40.129Z,21.70
2019-05-14T07:36:41.548Z,21.72
2019-05-14T07:37:42.948Z,21.71
2019-05-14T07:38:44.333Z,21.73
2019-05-14T07:39:45.731Z,21.74
2019-05-14T07:40:49.499Z,21.75
2019-05-14T07:41:50.428Z,21.74
2019-05-14T07:42:52.041Z,21.75
2019-05-14T07:43:53.707Z,21.76
2019-05-14T07:44:55.130Z,21.78
2019-05-14T07:45:58.197Z,21.79
2019-05-14T07:46:59.853Z,21.80
2019-05-14T07:48:01.278Z,21.81
2019-05-14T07:49:08.175Z,21.83
2019-05-14T07:50:08.637Z,21.83
2019-05-14T07:51:10.231Z,21.85
2019-05-14T07:52:11.630Z,21.85
2019-05-14T07:53:13.173Z,21.85
2019-05-14T07:54:14.599Z,21.87
2019-05-14T07:55:18.340Z,21.88
2019-05-14T07:56:19.421Z,21.89
2019-05-14T07:57:20.840Z,21.91
2019-05-14T07:58:23.457Z,21.91
2019-05-14T07:59:24.833Z,21.91
2019-05-14T08:00:28.574Z,21.90
2019-05-14T08:01:29.611Z,21.91
2019-05-14T08:02:31.108Z,21.90
2019-05-14T08:03:32.508Z,21.90
2019-05-14T08:04:33.924Z,21.90
2019-05-14T08:05:35.333Z,21.89
2019-05-14T08:06:39.401Z,21.89
2019-05-14T08:07:41.053Z,21.90
2019-05-14T08:08:42.456Z,21.89
2019-05-14T08:09:43.848Z,21.89
2019-05-14T08:10:45.248Z,21.90
2019-05-14T08:11:48.028Z,21.88
2019-05-14T08:12:49.735Z,21.88
2019-05-14T08:13:51.125Z,21.88
2019-05-14T08:15:13.083Z,21.88
2019-05-14T08:15:58.356Z,21.86
2019-05-14T08:17:00.034Z,21.86
2019-05-14T08:18:01.449Z,21.86
2019-05-14T08:19:04.947Z,21.85
2019-05-14T08:20:09.028Z,21.83
2019-05-14T08:21:10.633Z,21.85
2019-05-14T08:22:12.203Z,21.85
2019-05-14T08:23:13.607Z,21.84
2019-05-14T08:24:15.321Z,21.83
2019-05-14T08:25:19.014Z,21.83
2019-05-14T08:26:20.628Z,21.84
2019-05-14T08:27:22.144Z,21.82
2019-05-14T08:28:23.570Z,21.82
2019-05-14T08:29:25.001Z,21.82
2019-05-14T08:30:28.308Z,21.81
2019-05-14T08:31:29.892Z,21.81
2019-05-14T08:32:31.374Z,21.81
2019-05-14T08:33:32.804Z,21.81
2019-05-14T08:34:34.192Z,21.80
2019-05-14T08:35:35.597Z,21.81
2019-05-14T08:36:37.950Z,21.80
2019-05-14T08:37:39.622Z,21.79
2019-05-14T08:38:45.407Z,21.80
2019-05-14T08:39:45.446Z,21.80
2019-05-14T08:40:48.946Z,21.79
2019-05-14T08:41:55.985Z,21.81
2019-05-14T08:42:53.435Z,21.80
2019-05-14T08:43:54.821Z,21.80
2019-05-14T08:44:56.269Z,21.79
2019-05-14T08:45:58.806Z,21.79
2019-05-14T08:47:00.248Z,21.78
2019-05-14T08:48:01.640Z,21.80
2019-05-14T08:49:03.015Z,21.79
2019-05-14T08:50:05.027Z,21.79
2019-05-14T08:51:08.902Z,21.79
2019-05-14T08:52:10.812Z,21.78
2019-05-14T08:53:12.204Z,21.77
2019-05-14T08:54:13.601Z,21.76
2019-05-14T08:55:15.009Z,21.77
2019-05-14T08:56:18.902Z,21.77
2019-05-14T08:57:19.771Z,21.76
2019-05-14T08:58:21.244Z,21.75
2019-05-14T08:59:22.789Z,21.76
2019-05-14T09:00:24.176Z,21.74
2019-05-14T09:01:25.568Z,21.76
2019-05-14T09:02:28.659Z,21.75
2019-05-14T09:03:30.246Z,21.74
2019-05-14T09:04:31.638Z,21.75
2019-05-14T09:05:33.556Z,21.76
2019-05-14T09:06:35.041Z,21.74
2019-05-14T09:07:38.395Z,21.74
2019-05-14T09:08:39.852Z,21.74
2019-05-14T09:09:41.449Z,21.73
2019-05-14T09:10:43.024Z,21.74
2019-05-14T09:11:46.370Z,21.75
2019-05-14T09:12:49.147Z,21.75
2019-05-14T09:13:50.680Z,21.74
2019-05-14T09:14:52.063Z,21.75
2019-05-14T09:15:53.532Z,21.75
2019-05-14T09:16:54.910Z,21.75
2019-05-14T09:17:59.077Z,21.76
2019-05-14T09:19:00.588Z,21.76
2019-05-14T09:20:07.278Z,21.75
2019-05-14T09:21:08.634Z,21.76
2019-05-14T09:22:10.369Z,21.79
2019-05-14T09:23:11.757Z,21.79
2019-05-14T09:24:13.149Z,21.79
2019-05-14T09:25:14.628Z,21.79
2019-05-14T09:26:18.183Z,21.80
2019-05-14T09:27:19.518Z,21.80
2019-05-14T09:28:21.007Z,21.81
2019-05-14T09:29:26.068Z,21.81
2019-05-14T09:30:25.699Z,21.82
2019-05-14T09:31:29.551Z,21.83
2019-05-14T09:32:30.546Z,21.83
2019-05-14T09:33:32.005Z,21.85
2019-05-14T09:34:33.417Z,21.84
2019-05-14T09:35:34.799Z,21.84
2019-05-14T09:36:36.190Z,21.84
2019-05-14T09:37:39.516Z,21.84
2019-05-14T09:38:42.453Z,21.84
2019-05-14T09:39:44.178Z,21.85
2019-05-14T09:40:45.574Z,21.84
2019-05-14T09:41:48.239Z,21.84
2019-05-14T09:42:50.283Z,21.85
2019-05-14T09:43:51.878Z,21.85
2019-05-14T09:44:53.257Z,21.85
2019-05-14T09:45:54.760Z,21.85
2019-05-14T09:46:56.264Z,21.84
2019-05-14T09:47:58.572Z,21.84
2019-05-14T09:49:00.043Z,21.84
2019-05-14T09:50:15.239Z,21.84
2019-05-14T09:51:04.929Z,21.84
2019-05-14T09:52:08.820Z,21.83
2019-05-14T09:53:09.904Z,21.82
2019-05-14T09:54:11.428Z,21.82
2019-05-14T09:55:12.914Z,21.81
2019-05-14T09:56:14.353Z,21.81
2019-05-14T09:57:15.748Z,21.81
2019-05-14T09:58:19.952Z,21.80
2019-05-14T09:59:20.438Z,21.79
2019-05-14T10:00:22.150Z,21.80
2019-05-14T10:01:23.528Z,21.80
2019-05-14T10:02:25.033Z,21.79
2019-05-14T10:03:26.509Z,21.78
2019-05-14T10:04:27.915Z,21.79
2019-05-14T10:05:29.298Z,21.78
2019-05-14T10:06:30.701Z,21.79
2019-05-14T10:07:32.193Z,21.78
2019-05-14T10:08:33.589Z,21.78
2019-05-14T10:09:35.087Z,21.78
2019-05-14T10:10:36.470Z,21.77
2019-05-14T10:11:38.477Z,21.77
2019-05-14T10:12:51.810Z,21.76
2019-05-14T10:13:43.263Z,21.76
2019-05-14T10:14:44.671Z,21.76
2019-05-14T10:15:48.452Z,21.75
2019-05-14T10:16:50.630Z,21.75
2019-05-14T10:17:52.027Z,21.74
2019-05-14T10:18:53.406Z,21.75
2019-05-14T10:19:54.796Z,21.74
2019-05-14T10:20:56.181Z,21.76
2019-05-14T10:21:58.828Z,21.75
2019-05-14T10:23:00.400Z,21.75
2019-05-14T10:24:02.877Z,21.76
2019-05-14T10:25:04.627Z,21.77
2019-05-14T10:26:05.949Z,21.77
2019-05-14T10:27:08.936Z,21.77
2019-05-14T10:28:10.872Z,21.77
2019-05-14T10:29:12.358Z,21.80
2019-05-14T10:30:13.973Z,21.78
2019-05-14T10:31:18.107Z,21.79
2019-05-14T10:32:19.139Z,21.79
2019-05-14T10:33:20.547Z,21.80
2019-05-14T10:34:21.926Z,21.80
2019-05-14T10:35:23.342Z,21.80
2019-05-14T10:36:24.720Z,21.81
2019-05-14T10:37:28.604Z,21.81
2019-05-14T10:38:29.723Z,21.81
2019-05-14T10:39:31.135Z,21.80
2019-05-14T10:40:32.518Z,21.82
2019-05-14T10:41:33.921Z,21.81
2019-05-14T10:42:35.397Z,21.82
2019-05-14T10:43:38.943Z,21.82
2019-05-14T10:44:40.117Z,21.83
2019-05-14T10:45:41.529Z,21.83
2019-05-14T10:46:42.904Z,21.83
2019-05-14T10:47:44.376Z,21.83
2019-05-14T10:48:45.769Z,21.82
2019-05-14T10:49:47.169Z,21.83
2019-05-14T10:50:58.893Z,21.83
2019-05-14T10:51:51.821Z,21.83
2019-05-14T10:52:53.211Z,21.83
2019-05-14T10:53:54.637Z,21.84
2019-05-14T10:54:56.850Z,21.84
2019-05-14T10:55:59.302Z,21.86
2019-05-14T10:57:00.681Z,21.86
2019-05-14T10:58:02.117Z,21.87
2019-05-14T10:59:03.567Z,21.89
2019-05-14T11:00:08.627Z,21.89
2019-05-14T11:01:11.396Z,21.88
2019-05-14T11:02:12.258Z,21.90
2019-05-14T11:03:13.713Z,21.91
2019-05-14T11:04:15.207Z,21.91
2019-05-14T11:05:18.728Z,21.92
2019-05-14T11:06:19.878Z,21.92
2019-05-14T11:07:21.257Z,21.93
2019-05-14T11:08:22.686Z,21.93
2019-05-14T11:09:24.177Z,21.94
2019-05-14T11:10:25.661Z,21.95
2019-05-14T11:11:29.031Z,21.96
2019-05-14T11:12:30.445Z,21.96
2019-05-14T11:13:31.945Z,21.98
2019-05-14T11:14:33.437Z,21.99
2019-05-14T11:15:34.854Z,22.00
2019-05-14T11:16:41.514Z,21.99
2019-05-14T11:17:40.760Z,22.01
2019-05-14T11:18:42.425Z,22.01
2019-05-14T11:19:43.841Z,22.03
2019-05-14T11:20:45.231Z,22.03
2019-05-14T11:21:48.420Z,22.03
2019-05-14T11:22:50.112Z,22.05
2019-05-14T11:23:52.497Z,22.03
2019-05-14T11:24:53.900Z,22.04
2019-05-14T11:25:55.269Z,22.04
2019-05-14T11:26:58.974Z,22.04
2019-05-14T11:27:59.967Z,22.04
2019-05-14T11:29:01.363Z,22.05
2019-05-14T11:30:04.384Z,22.05
2019-05-14T11:31:05.772Z,22.05
2019-05-14T11:32:09.641Z,22.06
2019-05-14T11:33:10.441Z,22.05
2019-05-14T11:34:11.951Z,22.05
2019-05-14T11:35:13.732Z,22.05
2019-05-14T11:36:15.114Z,22.06
2019-05-14T11:37:18.645Z,22.04
2019-05-14T11:38:31.776Z,22.04
2019-05-14T11:39:23.182Z,22.05
2019-05-14T11:40:24.598Z,22.06
2019-05-14T11:41:25.981Z,22.05
2019-05-14T11:42:31.141Z,22.06
2019-05-14T11:43:30.690Z,22.05
2019-05-14T11:44:32.080Z,22.06
2019-05-14T11:45:33.585Z,22.05
2019-05-14T11:46:50.416Z,22.06
2019-05-14T11:47:38.290Z,22.05
2019-05-14T11:48:39.665Z,22.05
2019-05-14T11:49:41.141Z,22.05
2019-05-14T11:50:42.554Z,22.07
2019-05-14T11:52:01.012Z,22.07
2019-05-14T11:52:48.426Z,22.06
2019-05-14T11:53:49.973Z,22.06
2019-05-14T11:54:51.378Z,22.07
2019-05-14T11:55:52.887Z,22.08
2019-05-14T11:56:54.264Z,22.07
2019-05-14T11:57:58.042Z,22.07
2019-05-14T11:58:59.188Z,22.08
2019-05-14T12:00:00.762Z,22.08
2019-05-14T12:01:02.303Z,22.09
2019-05-14T12:02:03.689Z,22.09
2019-05-14T12:03:05.080Z,22.10
2019-05-14T12:04:08.912Z,22.10
2019-05-14T12:05:09.761Z,22.10
2019-05-14T12:06:11.182Z,22.10
2019-05-14T12:07:12.564Z,22.11
2019-05-14T12:08:13.964Z,22.12
2019-05-14T12:09:15.387Z,22.12
2019-05-14T12:10:18.783Z,22.12
2019-05-14T12:11:20.424Z,22.13
2019-05-14T12:12:21.795Z,22.14
2019-05-14T12:13:23.191Z,22.15
2019-05-14T12:14:24.666Z,22.15
2019-05-14T12:15:26.065Z,22.16
2019-05-14T12:16:29.150Z,22.18
2019-05-14T12:17:30.701Z,22.17
2019-05-14T12:18:32.097Z,22.18
2019-05-14T12:19:33.488Z,22.19
2019-05-14T12:20:35.029Z,22.19
2019-05-14T12:21:36.443Z,22.19
2019-05-14T12:22:39.261Z,22.20
2019-05-14T12:23:40.918Z,22.20
2019-05-14T12:24:42.298Z,22.20
2019-05-14T12:25:44.081Z,22.19
2019-05-14T12:26:45.483Z,22.20
2019-05-14T12:27:49.459Z,22.21
2019-05-14T12:28:50.265Z,22.19
2019-05-14T12:29:51.642Z,22.19
2019-05-14T12:30:53.035Z,22.19
2019-05-14T12:31:54.527Z,22.18
2019-05-14T12:32:58.846Z,22.18
2019-05-14T12:33:59.269Z,22.18
2019-05-14T12:35:00.781Z,22.18
2019-05-14T12:36:02.277Z,22.18
2019-05-14T12:37:03.778Z,22.18
2019-05-14T12:38:05.267Z,22.18
2019-05-14T12:39:09.556Z,22.17
2019-05-14T12:40:10.861Z,22.17
2019-05-14T12:41:12.348Z,22.17
2019-05-14T12:42:13.771Z,22.18
2019-05-14T12:43:18.616Z,22.18
2019-05-14T12:44:19.792Z,22.16
2019-05-14T12:45:21.222Z,22.18
2019-05-14T12:46:22.607Z,22.19
2019-05-14T12:47:24.002Z,22.20
2019-05-14T12:48:25.381Z,22.20
2019-05-14T12:49:26.783Z,22.20
2019-05-14T12:50:28.185Z,22.23
2019-05-14T12:51:29.724Z,22.24
2019-05-14T12:52:31.120Z,22.25
2019-05-14T12:53:32.605Z,22.26
2019-05-14T12:54:33.998Z,22.28
2019-05-14T12:55:35.379Z,22.29
2019-05-14T12:56:38.942Z,22.28
2019-05-14T12:57:40.061Z,22.28
2019-05-14T12:58:45.518Z,22.30
2019-05-14T12:59:44.748Z,22.30
2019-05-14T13:00:48.494Z,22.31
2019-05-14T13:01:49.455Z,22.31
2019-05-14T13:02:50.850Z,22.31
2019-05-14T13:03:52.345Z,22.31
2019-05-14T13:04:53.737Z,22.31
2019-05-14T13:05:55.129Z,22.32
2019-05-14T13:06:59.547Z,22.32
2019-05-14T13:07:59.831Z,22.32
2019-05-14T13:09:01.238Z,22.34
2019-05-14T13:10:08.968Z,22.34
2019-05-14T13:11:10.007Z,22.34
2019-05-14T13:12:11.549Z,22.34
2019-05-14T13:13:12.984Z,22.34
2019-05-14T13:14:14.352Z,22.33
2019-05-14T13:15:15.754Z,22.33
2019-05-14T13:16:19.395Z,22.33
2019-05-14T13:17:20.461Z,22.33
2019-05-14T13:18:21.890Z,22.33
2019-05-14T13:19:23.268Z,22.35